Meteorología y climatología de Navarra
Datos de la estación - Meteo Navarra

Estación de Aguilar de Codés GN

Altitud 736 m.


Datos desde el 09/11/2018 hasta el 10/11/2018 en horario solar
Los datos son PROVISIONALES

Anterior Página 1 de 1 Siguiente Descargar: Formato para Excel 2000 o superior   Formato csv   Formato para OpenOffice Calc
Fecha Temperatura Humedad relativa Radiación global Insolación Precipitación Velocidad viento 10 m Velocidad viento 10 m Dirección viento 10 m
ºC % W/m² s l/m² m/s km/h º
09/11/2018 0:00 6.2 88 0.0 0 0.1 3.2 11.4 280
09/11/2018 0:10 6.6 84 0.0 0 0.1 4.5 16.1 297
09/11/2018 0:20 6.9 80 0.0 0 0.0 5.0 17.9 289
09/11/2018 0:30 7.0 78 0.0 0 0.0 5.2 18.8 300
09/11/2018 0:40 6.9 77 0.0 0 0.0 4.9 17.5 296
09/11/2018 0:50 6.7 78 0.0 0 0.0 3.9 14.1 296
09/11/2018 1:00 6.4 80 0.0 0 0.0 3.9 13.9 313
09/11/2018 1:10 6.0 83 0.0 0 0.0 5.0 18.1 315
09/11/2018 1:20 5.9 83 0.0 0 0.0 4.4 15.9 312
09/11/2018 1:30 5.8 84 0.0 0 0.0 4.5 16.1 313
09/11/2018 1:40 5.6 86 0.0 0 0.0 4.1 14.8 317
09/11/2018 1:50 5.6 87 0.0 0 0.0 3.3 11.8 297
09/11/2018 2:00 5.8 85 0.0 0 0.0 3.7 13.2 300
09/11/2018 2:10 5.9 85 0.0 0 0.0 4.7 16.8 312
09/11/2018 2:20 5.9 84 0.0 0 0.0 5.4 19.4 304
09/11/2018 2:30 6.1 82 0.0 0 0.0 5.2 18.6 288
09/11/2018 2:40 6.1 82 0.0 0 0.0 5.8 20.8 279
09/11/2018 2:50 6.3 79 0.0 0 0.0 4.9 17.5 274
09/11/2018 3:00 6.3 80 0.0 0 0.0 4.7 16.9 310
09/11/2018 3:10 6.2 82 0.0 0 0.0 4.6 16.7 311
09/11/2018 3:20 6.0 85 0.0 0 0.0 4.4 16.0 319
09/11/2018 3:30 5.7 86 0.0 0 0.0 4.0 14.4 313
09/11/2018 3:40 5.5 87 0.0 0 0.0 3.7 13.2 316
09/11/2018 3:50 5.5 88 0.0 0 0.0 4.3 15.5 320
09/11/2018 4:00 5.5 88 0.0 0 0.0 4.6 16.6 315
09/11/2018 4:10 5.4 88 0.0 0 0.0 4.6 16.4 315
09/11/2018 4:20 5.2 88 0.0 0 0.0 3.5 12.5 311
09/11/2018 4:30 5.2 85 0.0 0 0.0 4.3 15.4 297
09/11/2018 4:40 5.3 82 0.0 0 0.0 4.7 17.1 290
09/11/2018 4:50 5.2 83 0.0 0 0.0 5.3 18.9 283
09/11/2018 5:00 5.2 83 0.0 0 0.0 4.6 16.6 279
09/11/2018 5:10 5.0 85 0.0 0 0.0 4.5 16.1 272
09/11/2018 5:20 5.1 85 0.0 0 0.0 4.4 15.8 275
09/11/2018 5:30 5.1 84 0.0 0 0.0 3.5 12.5 295
09/11/2018 5:40 5.0 85 0.0 0 0.0 3.9 14.1 303
09/11/2018 5:50 4.9 86 0.0 0 0.0 3.5 12.7 308
09/11/2018 6:00 5.0 86 0.0 0 0.0 3.3 11.8 295
09/11/2018 6:10 4.9 86 0.0 0 0.0 3.9 14.1 311
09/11/2018 6:20 4.7 88 0.0 0 0.0 4.0 14.4 307
09/11/2018 6:30 4.7 88 0.0 0 0.0 3.9 14.1 300
09/11/2018 6:40 4.7 88 0.0 0 0.0 3.6 12.8 298
09/11/2018 6:50 4.6 88 0.0 0 0.0 4.2 15.2 310
09/11/2018 7:00 4.5 89 0.0 0 0.0 4.6 16.4 314
09/11/2018 7:10 4.5 89 9.8 0 0.0 4.2 15.1 313
09/11/2018 7:20 4.5 89 21.9 54 0.0 3.9 14.1 311
09/11/2018 7:30 4.8 89 20.8 0 0.0 4.5 16.3 317
09/11/2018 7:40 4.8 88 26.8 0 0.0 3.3 11.8 312
09/11/2018 7:50 4.9 89 34.5 0 0.0 3.9 14.1 322
09/11/2018 8:00 5.0 88 40.5 0 0.0 2.8 10.0 317
09/11/2018 8:10 5.5 87 54.3 0 0.0 2.9 10.5 314
09/11/2018 8:20 5.5 87 67.0 0 0.0 4.0 14.5 324
09/11/2018 8:30 5.6 88 80.6 0 0.0 4.2 15.2 322
09/11/2018 8:40 5.7 87 102.4 0 0.0 5.1 18.4 319
09/11/2018 8:50 6.0 87 138.7 104 0.0 4.9 17.6 317
09/11/2018 9:00 6.1 86 192.5 584 0.0 4.6 16.4 323
09/11/2018 9:10 6.4 85 230.1 600 0.0 4.4 16.0 320
09/11/2018 9:20 6.8 85 257.5 600 0.0 4.6 16.5 326
09/11/2018 9:30 7.0 82 292.4 600 0.0 4.6 16.5 315
09/11/2018 9:40 7.2 79 208.7 328 0.0 4.9 17.7 303
09/11/2018 9:50 7.4 78 209.8 232 0.0 5.0 17.9 301
09/11/2018 10:00 7.5 76 226.9 312 0.0 4.7 16.7 294
09/11/2018 10:10 7.7 75 305.0 600 0.0 4.1 14.6 292
09/11/2018 10:20 8.3 74 552.9 600 0.0 4.1 14.8 287
09/11/2018 10:30 8.4 72 467.6 544 0.0 3.8 13.5 288
09/11/2018 10:40 8.5 72 494.6 540 0.0 3.5 12.5 282
09/11/2018 10:50 8.8 71 491.8 552 0.0 3.3 11.8 304
09/11/2018 11:00 8.5 71 380.3 350 0.0 3.7 13.2 315
09/11/2018 11:10 8.6 71 555.4 564 0.0 3.6 13.0 317
09/11/2018 11:20 8.8 71 603.6 600 0.0 5.3 19.0 316
09/11/2018 11:30 8.7 72 556.2 600 0.0 5.5 19.9 317
09/11/2018 11:40 8.6 71 548.2 600 0.0 5.7 20.4 315
09/11/2018 11:50 8.5 72 535.8 566 0.0 5.4 19.5 315
09/11/2018 12:00 8.5 72 599.6 600 0.0 6.3 22.5 317
09/11/2018 12:10 8.7 69 414.8 454 0.0 5.6 20.1 316
09/11/2018 12:20 9.0 68 608.7 600 0.0 6.0 21.7 316
09/11/2018 12:30 9.3 66 374.3 344 0.0 6.6 23.6 310
09/11/2018 12:40 8.9 66 345.6 550 0.0 6.9 24.9 313
09/11/2018 12:50 8.7 67 437.0 546 0.0 7.1 25.6 306
09/11/2018 13:00 8.9 66 551.4 600 0.0 6.6 23.6 309
09/11/2018 13:10 9.0 66 495.6 600 0.0 7.7 27.6 315
09/11/2018 13:20 9.1 66 496.0 600 0.0 7.1 25.6 314
09/11/2018 13:30 8.9 64 455.8 600 0.0 7.8 28.0 315
09/11/2018 13:40 9.0 64 321.2 510 0.0 7.3 26.1 320
09/11/2018 13:50 9.2 62 466.3 600 0.0 6.3 22.7 319
09/11/2018 14:00 9.4 62 450.3 600 0.0 6.2 22.4 318
09/11/2018 14:10 9.4 62 384.5 600 0.0 4.4 16.0 315
09/11/2018 14:20 9.7 60 394.4 600 0.0 2.7 9.9 302
09/11/2018 14:30 10.8 56 341.6 600 0.0 1.9 6.9 262
09/11/2018 14:40 10.3 55 342.9 600 0.0 5.1 18.3 279
09/11/2018 14:50 10.5 54 331.0 600 0.0 5.7 20.6 271
09/11/2018 15:00 10.4 56 235.5 390 0.0 7.5 27.1 266
09/11/2018 15:10 10.0 56 231.5 494 0.0 7.3 26.2 262
09/11/2018 15:20 10.1 57 320.8 600 0.0 7.9 28.5 274
09/11/2018 15:30 10.4 58 243.3 574 0.0 6.5 23.3 267
09/11/2018 15:40 10.2 57 167.3 540 0.0 4.7 17.0 257
09/11/2018 15:50 10.1 55 160.1 600 0.0 7.1 25.7 272
09/11/2018 16:00 9.8 57 69.3 184 0.0 8.0 28.7 268
09/11/2018 16:10 9.6 60 43.1 0 0.0 8.3 29.8 273
09/11/2018 16:20 9.5 61 24.9 0 0.0 8.4 30.3 271
09/11/2018 16:30 9.1 63 18.9 0 0.0 7.7 27.6 280
09/11/2018 16:40 9.4 62 3.5 0 0.0 8.5 30.5 271
09/11/2018 16:50 9.3 64 0.0 0 0.0 8.0 28.8 276
09/11/2018 17:00 9.4 64 0.0 0 0.0 8.8 31.5 278
09/11/2018 17:10 9.4 65 0.0 0 0.0 9.4 33.9 276
09/11/2018 17:20 9.6 64 0.0 0 0.0 9.5 34.2 277
09/11/2018 17:30 9.6 64 0.0 0 0.0 9.7 35.0 270
09/11/2018 17:40 9.8 65 0.0 0 0.0 9.9 35.5 277
09/11/2018 17:50 10.1 64 0.0 0 0.0 8.6 30.8 281
09/11/2018 18:00 10.1 65 0.0 0 0.0 9.0 32.5 281
09/11/2018 18:10 10.1 66 0.0 0 0.0 8.9 32.0 275
09/11/2018 18:20 10.0 67 0.0 0 0.0 8.3 29.8 274
09/11/2018 18:30 10.0 68 0.0 0 0.0 8.8 31.5 280
09/11/2018 18:40 10.2 68 0.0 0 0.0 8.6 30.8 285
09/11/2018 18:50 10.1 69 0.0 0 0.0 8.2 29.4 274
09/11/2018 19:00 10.1 69 0.0 0 0.0 8.8 31.8 281
09/11/2018 19:10 10.3 69 0.0 0 0.0 7.9 28.3 294
09/11/2018 19:20 10.7 67 0.0 0 0.0 8.9 32.2 298
09/11/2018 19:30 11.0 66 0.0 0 0.0 9.3 33.5 304
09/11/2018 19:40 11.2 66 0.0 0 0.0 7.4 26.7 290
09/11/2018 19:50 11.3 66 0.0 0 0.0 7.3 26.2 273
09/11/2018 20:00 11.1 67 0.0 0 0.0 5.7 20.3 272
09/11/2018 20:10 10.7 68 0.0 0 0.0 2.5 9.1 235
09/11/2018 20:20 10.3 69 0.0 0 0.0 1.3 4.6 242
09/11/2018 20:30 10.1 70 0.0 0 0.0 2.1 7.4 212
09/11/2018 20:40 10.0 71 0.0 0 0.0 1.1 4.0 233
09/11/2018 20:50 9.8 72 0.0 0 0.0 1.2 4.4 112
09/11/2018 21:00 9.5 75 0.0 0 0.0 1.2 4.1 160
09/11/2018 21:10 9.3 79 0.0 0 0.2 1.2 4.4 152
09/11/2018 21:20 8.4 87 0.0 0 0.0 2.0 7.1 161
09/11/2018 21:30 8.2 89 0.0 0 0.0 1.9 6.9 165
09/11/2018 21:40 8.0 89 0.0 0 0.0 1.6 5.9 143
09/11/2018 21:50 7.7 88 0.0 0 0.0 2.8 10.1 91
09/11/2018 22:00 7.4 89 0.0 0 0.0 3.3 11.8 118
09/11/2018 22:10 7.2 88 0.0 0 0.0 1.8 6.6 86
09/11/2018 22:20 7.3 87 0.0 0 0.0 1.9 6.8 163
09/11/2018 22:30 7.2 86 0.0 0 0.0 1.0 3.7 132
09/11/2018 22:40 7.2 85 0.0 0 0.0 1.1 4.0 60
09/11/2018 22:50 7.2 83 0.0 0 0.0 0.8 2.8 91
09/11/2018 23:00 7.3 81 0.0 0 0.0 1.3 4.6 153
09/11/2018 23:10 7.3 81 0.0 0 0.0 0.9 3.1 175
09/11/2018 23:20 7.3 82 0.0 0 0.1 1.2 4.2 104
09/11/2018 23:30 7.1 83 0.0 0 0.2 0.4 1.5 91
09/11/2018 23:40 6.9 85 0.0 0 0.1 1.1 3.9 119
09/11/2018 23:50 6.8 87 0.0 0 0.1 0.7 2.6 131
Anterior Página 1 de 1 Siguiente

NOTA: Tipo de datos según el color:
   - Valores diarios o 10 minutos correctos
   - Valores diarios calculados a partir de un número de datos 10 minutos menor que 144 y mayor que 120, o de un número de datos semihorarios menor que 48 y mayor que 40 (caso de las estaciones de Riegos de Navarra y del MARM)
   - Valores diez minutos estimados


Contacto        Enlaces        Aviso legal